Date,TemperatureHighF,TemperatureAvgF,TemperatureLowF,DewpointHighF,DewpointAvgF,DewpointLowF,HumidityHigh,HumidityAvg,HumidityLow,PressureMaxIn,PressureMinIn,WindSpeedMaxMPH,WindSpeedAvgMPH,GustSpeedMaxMPH,PrecipitationSumIn
2013-1-1,24.3,13.9,3.1,24.3,3.5,-10.3,100,61,43,29.80,29.56,15,7,28,0.00
2013-1-2,12.7,1.6,-11.2,1.0,-11.8,-24.5,55,49,47,30.03,29.71,9,3,18,0.00
2013-1-3,15.7,-1.0,-13.5,-0.9,-15.8,-26.6,47,45,42,30.09,29.80,4,1,8,0.00
2013-1-4,60.0,20.2,7.4,25.7,14.9,-9.1,100,80,42,29.92,29.62,10,4,18,0.00
2013-1-5,27.6,19.8,8.5,24.4,10.3,-1.1,93,64,42,30.12,29.65,14,5,32,0.00
2013-1-6,27.1,19.9,10.7,27.1,16.4,1.8,100,85,61,30.09,29.77,5,2,11,0.00
2013-1-7,29.4,18.5,9.8,27.2,10.6,0.4,100,70,42,30.24,29.83,6,3,12,0.04
2013-1-8,39.8,25.3,9.3,20.9,15.3,3.1,83,65,41,30.30,30.06,7,-582,9,0.00
2013-1-9,34.7,26.8,20.1,28.8,21.9,18.2,94,80,61,30.30,29.80,8,-307,17,0.00
2013-1-10,34.8,30.7,21.3,31.7,22.3,15.4,100,69,54,30.45,29.85,15,7,29,0.00
2013-1-11,31.1,25.2,16.4,30.0,19.9,12.7,99,79,56,30.45,30.06,3,1,6,0.00
2013-1-12,37.8,33.9,30.3,37.8,33.9,30.0,100,100,99,30.09,30.00,4,1,8,0.29
2013-1-13,41.7,35.4,31.7,41.7,35.4,31.7,100,100,100,30.03,29.83,4,1,9,0.04
2013-1-14,43.1,37.2,29.6,43.1,32.1,19.0,100,83,57,30.15,29.77,11,4,24,0.00
2013-1-15,29.4,26.0,20.4,19.4,16.2,13.2,75,63,52,30.24,30.12,6,2,12,0.00
2013-1-16,26.3,24.1,22.4,26.3,21.3,16.3,100,88,74,30.15,29.68,5,1,7,0.00
2013-1-17,26.7,17.9,3.5,26.7,8.4,-13.6,100,67,35,30.03,29.68,13,4,25,0.00
2013-1-18,14.4,3.3,-6.8,-5.2,-14.7,-23.2,40,38,36,30.24,30.00,12,3,20,0.00
2013-1-19,29.8,20.4,6.0,24.5,10.4,-13.2,90,63,36,30.15,29.74,4,2,9,0.00
2013-1-20,37.4,27.2,8.4,31.7,16.9,-1.9,93,64,43,29.80,29.35,16,6,28,0.00
2013-1-21,18.9,8.2,-2.8,2.1,-5.2,-12.6,59,50,40,29.94,29.74,11,3,22,0.00
2013-1-22,60.0,4.9,-6.0,58.0,-8.7,-18.9,98,49,44,29.92,29.65,11,5,19,3.29
2013-1-23,2.7,-9.9,-17.6,-10.6,-22.5,-30.1,49,49,49,30.00,29.88,9,-2,14,0.00
2013-1-24,8.2,-7.7,-19.2,-5.5,-20.5,-31.4,49,49,49,30.15,29.88,16,-210,29,0.00
2013-1-25,15.3,2.0,-8.7,-2.1,-13.0,-21.7,49,45,40,30.15,29.94,6,2,12,0.00
2013-1-26,15.8,7.6,2.2,-2.7,-10.2,-14.9,41,39,37,30.03,29.91,10,4,19,0.00
2013-1-27,20.0,7.5,0.2,1.8,-10.9,-17.6,45,38,36,30.33,30.18,8,3,20,0.00
2013-1-28,15.4,8.7,-0.1,11.7,-5.4,-18.4,83,51,37,30.33,29.91,3,1,4,0.00
2013-1-29,27.4,19.7,8.4,26.9,15.7,4.8,100,82,70,30.09,29.94,5,1,8,0.00
2013-1-30,48.5,38.8,26.9,48.5,38.8,26.9,100,100,100,29.97,29.35,7,2,15,0.67
2013-1-31,60.0,39.9,18.3,50.4,38.2,3.2,100,93,47,29.92,28.79,14,3,28,0.95
2013-2-1,18.2,11.5,6.0,8.3,0.1,-6.1,70,56,46,29.94,29.35,10,5,20,0.00
2013-2-2,16.5,9.9,0.2,9.2,-0.2,-11.6,81,61,47,30.06,29.88,7,2,12,0.00
2013-2-3,27.5,16.3,6.5,11.7,5.3,0.9,81,60,38,29.91,29.59,4,2,9,0.00
2013-2-4,18.4,11.8,2.9,8.1,0.1,-11.2,71,55,45,29.80,29.56,12,5,23,0.00
2013-2-5,20.3,7.2,-4.5,-0.4,-9.4,-18.2,47,42,35,29.91,29.77,7,2,12,0.00
2013-2-6,26.9,15.0,4.6,19.3,2.4,-10.9,82,54,38,30.21,29.77,13,-2,24,0.00
2013-2-7,15.6,6.4,-1.6,-3.1,-11.2,-16.7,44,40,35,30.39,30.21,7,2,12,0.00
2013-2-8,19.6,13.9,9.3,15.4,3.4,-10.7,89,63,35,30.36,29.83,13,-212,24,0.00
2013-2-9,12.5,8.8,3.2,7.5,3.9,-1.5,78,78,78,30.15,29.80,13,8,26,0.00
2013-2-10,29.6,12.6,-1.3,8.5,0.5,-5.9,78,57,35,30.30,30.12,6,2,12,0.00
2013-2-11,31.9,22.9,13.2,31.9,13.6,-1.6,100,67,43,30.21,29.53,4,1,7,0.00
2013-2-12,36.7,31.7,28.4,32.2,28.9,24.1,100,89,71,29.74,29.50,16,5,26,0.00
2013-2-13,33.4,28.5,25.8,24.5,22.5,20.3,83,76,60,29.77,29.65,12,3,18,0.00
2013-2-14,31.7,27.4,23.7,21.8,18.8,14.9,81,67,52,29.88,29.65,6,2,11,0.00
2013-2-15,43.2,31.8,23.9,26.9,20.8,16.5,87,63,44,29.88,29.77,9,2,18,0.21
2013-2-16,35.2,24.6,16.0,19.3,11.7,0.7,79,55,42,29.88,29.77,9,4,15,0.00
2013-2-17,16.0,10.3,6.1,0.6,-3.2,-7.1,50,50,46,29.74,29.41,14,7,23,0.00
2013-2-18,24.2,10.2,1.6,3.5,-6.7,-12.4,50,42,32,30.03,29.62,14,-21,24,0.00
2013-2-19,39.8,24.9,6.3,27.9,6.0,-13.5,83,44,30,30.03,29.53,8,2,15,0.00
2013-2-20,32.4,24.3,19.6,30.5,18.6,12.7,97,77,57,29.62,29.47,10,4,22,0.00
2013-2-21,60.0,14.6,6.8,17.9,6.7,-1.8,87,68,54,30.15,29.59,10,4,24,0.00
2013-2-22,29.4,22.4,19.0,19.6,17.8,16.2,90,81,57,30.30,30.12,7,4,13,0.00
2013-2-23,60.0,22.0,29.1,58.0,-6.1,-99.9,100,72,98,29.94,28.35,10,-61,18,3.29
2013-2-24,60.0,13.2,28.6,58.0,-43.3,-99.9,100,43,90,29.92,28.23,10,-102,18,3.29
2013-2-28,60.0,37.1,32.5,58.0,27.8,-99.9,99,74,51,29.92,29.47,10,-23,18,0.29
2013-3-1,32.2,27.0,27.1,31.6,14.1,-99.9,98,78,76,29.65,29.47,7,-63,13,0.00
2013-3-2,34.9,27.0,23.5,26.4,22.8,19.5,93,83,57,29.65,29.59,9,4,15,0.05
2013-3-3,31.2,25.4,22.1,25.3,22.1,19.4,92,86,73,29.65,29.53,9,3,14,0.00
2013-3-4,27.7,22.4,20.6,19.7,18.2,16.7,92,82,65,29.77,29.53,8,3,15,0.00
2013-3-5,43.1,29.6,20.8,30.6,24.0,19.2,93,80,51,30.00,29.74,7,3,11,0.12
2013-3-6,35.8,32.1,27.8,30.3,23.1,17.8,92,69,51,30.12,30.00,10,6,23,0.00
2013-3-7,34.0,28.3,25.5,20.5,19.4,18.2,73,66,54,30.12,30.00,7,4,18,0.00
2013-3-8,40.8,32.4,26.8,19.7,18.6,16.8,70,56,40,30.18,30.00,8,4,15,0.00
2013-3-9,54.1,37.3,21.6,22.5,17.6,12.7,68,46,26,30.24,30.15,6,2,10,0.00
2013-3-10,52.9,39.9,26.1,24.9,19.8,16.1,66,45,30,30.27,30.06,7,2,11,0.00
2013-3-11,60.0,39.0,31.9,24.6,21.4,18.5,64,49,40,30.12,29.92,10,2,18,0.00
2013-3-12,41.8,38.5,34.0,41.8,34.5,18.4,100,87,48,29.97,29.65,10,2,14,0.78
2013-3-13,39.3,32.3,27.9,33.8,27.8,22.2,100,84,54,29.77,29.65,7,3,13,0.05
2013-3-14,29.5,22.1,12.1,27.4,12.2,0.4,93,64,44,29.74,29.59,11,5,19,0.04
2013-3-15,30.7,20.1,9.5,22.5,8.6,-2.1,90,58,38,29.77,29.47,11,4,17,0.00
2013-3-16,28.0,20.5,11.7,18.1,10.2,0.7,88,62,43,29.80,29.59,9,4,15,0.00
2013-3-17,24.0,14.1,6.7,6.3,-0.9,-9.2,60,47,33,30.21,29.77,16,5,25,0.00
2013-3-18,32.7,17.7,4.1,7.9,-2.1,-13.3,47,37,31,30.27,30.06,6,2,12,0.00
2013-3-19,29.2,23.6,19.2,22.8,18.8,5.3,99,82,36,30.06,29.65,8,3,13,0.00
2013-3-20,31.9,23.6,16.2,23.8,18.1,13.8,98,78,51,29.65,29.53,8,3,14,0.00
2013-3-21,60.0,25.6,12.6,58.0,12.5,8.6,98,58,34,29.92,29.53,10,3,18,3.29
2013-3-22,34.4,24.2,15.2,19.3,13.9,8.5,80,62,43,29.62,29.53,8,4,13,0.00
2013-3-23,32.2,26.2,20.6,23.6,20.2,15.3,88,76,57,29.68,29.50,16,6,26,0.00
2013-3-24,39.8,30.4,24.8,24.2,21.2,18.6,86,68,47,29.77,29.65,9,5,17,0.00
2013-3-25,43.1,32.9,22.6,26.0,20.9,18.6,90,63,40,29.74,29.53,7,3,15,0.00
2013-3-26,45.8,35.2,28.1,21.6,19.1,17.0,67,52,38,29.74,29.53,9,5,18,0.00
2013-3-27,41.0,34.1,25.0,32.1,24.3,16.6,97,67,49,29.85,29.71,9,4,21,2.19
2013-3-28,46.9,36.6,30.2,35.6,29.9,25.5,100,79,47,29.97,29.83,9,-50,13,0.03
2013-3-29,44.5,38.4,34.5,34.5,29.1,23.2,96,71,46,30.00,29.88,10,5,18,0.00
2013-3-30,47.8,37.4,29.7,30.2,20.0,9.2,86,53,28,30.03,29.94,9,3,15,0.00
2013-3-31,51.9,39.7,26.8,31.5,17.8,13.0,73,41,29,30.03,29.71,8,-133,18,0.00
2013-4-1,42.7,34.7,24.8,38.4,30.5,11.7,100,84,52,29.71,29.44,16,-39,27,2.39
2013-4-2,27.9,22.9,17.8,18.8,11.7,7.4,84,59,41,29.74,29.65,12,6,25,0.00
2013-4-3,35.8,26.7,21.2,17.6,10.5,6.6,75,48,32,30.03,29.74,16,8,32,0.00
2013-4-4,47.9,34.8,22.1,16.3,11.6,6.2,51,37,27,30.12,29.85,13,6,24,0.00
2013-4-5,44.9,36.8,26.8,23.5,18.7,13.1,63,47,38,29.85,29.68,12,6,23,0.00
2013-4-6,35.2,25.0,16.4,17.1,7.6,3.4,73,45,31,30.21,29.83,16,7,29,0.00
2013-4-7,52.4,35.4,24.4,30.0,14.9,6.7,57,41,30,30.21,29.80,10,3,25,0.00
2013-4-8,51.9,41.8,36.1,33.3,28.1,24.0,74,59,38,30.06,29.83,10,3,15,0.00
2013-4-9,42.4,39.4,36.1,42.3,36.9,25.1,100,91,56,30.00,29.77,6,-9,13,0.29
2013-4-10,47.4,40.0,36.1,42.8,37.3,34.7,100,91,69,29.94,29.85,5,2,9,0.12
2013-4-11,38.9,35.4,30.7,35.4,17.1,10.9,96,49,34,30.09,29.85,9,-57,13,0.05
2013-4-12,31.3,29.8,26.8,29.8,23.2,12.6,97,76,43,30.12,29.77,6,2,12,0.08
2013-4-13,42.0,34.2,29.8,37.2,32.9,29.4,100,95,77,29.85,29.71,4,1,8,0.41
2013-4-14,46.0,37.1,31.6,38.0,30.8,23.8,100,80,44,30.12,29.83,10,-247,15,0.05
2013-4-15,56.9,43.0,27.6,32.3,27.2,23.5,97,58,32,30.27,30.12,7,-214,12,0.00
2013-4-16,54.8,46.8,36.9,52.2,38.8,27.2,100,75,50,30.24,29.88,12,-24,28,0.33
2013-4-17,53.6,44.0,35.1,43.1,27.7,17.0,83,55,33,30.30,29.97,11,5,21,0.00
2013-4-18,54.3,43.4,31.8,35.5,25.5,15.7,71,49,39,30.36,29.94,7,2,20,0.00
2013-4-19,70.9,57.5,51.2,52.6,47.8,35.9,88,71,45,29.97,29.68,12,5,23,0.00
2013-4-20,45.3,38.8,32.4,37.9,23.3,14.8,100,56,39,30.15,29.68,11,6,23,0.58
2013-4-21,45.4,33.7,25.9,20.0,14.6,8.8,67,45,30,30.59,30.12,14,5,23,0.00
2013-4-22,53.5,39.2,27.1,19.9,14.3,9.5,46,36,26,30.65,30.47,9,4,17,0.00
2013-4-23,49.6,39.1,26.8,33.7,23.8,11.2,80,54,39,30.50,30.12,8,3,15,0.00
2013-4-24,72.4,53.5,36.0,43.6,36.6,30.6,100,61,22,30.12,29.65,8,-18,13,0.00
2013-4-25,62.1,47.8,36.4,48.5,27.7,15.4,77,47,30,30.24,29.62,12,5,24,0.00
2013-4-26,54.4,43.5,31.8,32.7,23.7,16.1,67,46,35,30.36,30.24,6,2,10,0.00
2013-4-27,59.8,46.6,33.3,35.6,28.1,22.7,88,53,27,30.36,30.18,8,2,12,0.00
2013-4-28,69.2,52.9,34.6,31.7,27.6,21.5,62,40,24,30.27,30.06,8,-19,13,0.00
2013-4-29,70.2,55.7,44.1,37.5,32.4,28.9,60,42,25,30.18,30.03,9,-54,15,0.00
2013-4-30,72.5,59.2,48.6,40.2,35.4,28.4,58,42,31,30.27,30.12,7,2,11,0.00
2013-5-1,77.0,59.0,44.5,36.5,31.3,27.0,51,36,23,30.39,30.24,7,2,12,0.00
2013-5-2,76.3,61.1,49.2,39.9,34.5,28.6,51,38,25,30.39,30.24,7,3,12,0.00
2013-5-3,71.1,55.1,38.8,39.0,32.8,24.2,59,44,29,30.47,30.24,6,2,10,0.00
2013-5-4,74.1,59.2,44.6,43.1,34.2,24.5,75,43,22,30.33,30.12,6,2,15,0.00
2013-5-5,76.9,58.3,40.0,37.1,32.6,29.4,71,41,21,30.24,30.06,8,3,13,0.00
2013-5-6,77.7,61.6,45.3,38.1,31.8,22.7,61,35,21,30.18,30.00,7,3,11,0.00
2013-5-7,81.2,64.8,48.6,41.2,34.1,26.6,58,34,19,30.09,29.94,8,2,12,0.00
2013-5-8,76.9,64.1,54.1,54.7,46.8,32.4,88,56,27,30.12,30.00,9,3,21,0.00
2013-5-9,68.2,60.2,54.9,60.1,56.1,51.3,100,88,54,30.00,29.80,5,1,11,0.45
2013-5-10,69.7,60.4,53.4,61.8,56.7,51.7,100,89,56,29.91,29.80,5,1,9,0.05
2013-5-11,63.1,58.7,52.8,61.9,58.1,52.8,100,98,87,29.83,29.59,7,2,13,0.24
2013-5-12,60.3,51.4,39.4,53.6,42.1,24.0,100,73,43,29.71,29.53,11,-164,15,0.00
2013-5-13,48.0,41.6,35.2,29.8,24.5,21.0,72,51,40,29.97,29.68,10,-29,17,0.00
2013-5-14,54.1,42.0,30.7,30.0,24.2,19.7,88,53,32,30.00,29.88,11,4,17,0.00
2013-5-15,62.6,47.0,32.5,49.5,31.7,19.8,100,60,29,30.00,29.59,10,-16,18,0.21
2013-5-16,69.6,56.9,48.5,51.5,40.3,30.7,100,59,25,29.83,29.53,12,-4,32,0.00
2013-5-17,60.4,49.9,43.3,43.6,36.8,31.8,94,63,37,30.18,29.80,12,4,22,0.00
2013-5-18,67.7,54.9,42.6,43.4,37.4,32.3,86,55,32,30.24,30.12,6,2,11,0.00
2013-5-19,67.5,56.3,43.5,53.0,43.6,36.9,100,67,34,30.27,30.09,6,2,10,0.25
2013-5-20,68.0,57.1,51.6,62.1,54.7,51.6,100,93,59,30.09,29.91,8,2,10,0.37
2013-5-21,66.3,56.0,49.8,63.6,55.2,49.8,100,97,80,30.00,29.83,12,2,13,0.75
2013-5-22,68.7,56.8,49.5,65.5,56.4,49.5,100,99,86,29.88,29.77,7,1,13,0.75
2013-5-23,69.5,61.9,56.8,67.7,60.5,56.8,100,95,81,29.80,29.71,9,3,17,0.08
2013-5-24,63.7,51.6,42.3,63.4,51.2,42.3,100,99,90,29.88,29.62,12,4,18,0.59
2013-5-25,42.3,38.7,33.4,42.3,38.5,33.4,100,99,89,29.88,29.74,14,7,24,0.66
2013-5-26,47.0,39.4,33.8,40.4,36.6,33.8,100,90,72,30.00,29.71,12,-49,23,0.37
2013-5-27,62.4,47.3,32.2,44.2,34.0,30.0,100,66,34,30.12,29.97,12,4,22,0.00
2013-5-28,70.0,55.3,39.7,44.8,37.1,31.8,84,54,28,30.21,30.06,8,2,13,0.00
2013-5-29,59.1,54.9,50.4,59.1,51.6,39.8,100,90,63,30.12,29.91,6,1,10,0.08
2013-5-30,79.9,67.6,58.8,66.3,59.4,55.8,100,78,44,30.03,29.94,11,3,19,0.00
2013-5-31,85.3,72.5,59.9,65.5,60.9,57.7,100,71,40,30.06,29.83,11,2,18,3.29
2013-6-1,87.5,74.7,65.8,65.7,61.1,52.0,88,65,31,29.91,29.77,9,3,17,0.00
2013-6-2,83.6,70.2,63.4,69.4,65.0,60.6,100,85,52,29.80,29.59,12,3,23,0.59
2013-6-3,69.8,63.3,53.6,63.2,52.9,42.9,100,71,46,29.80,29.71,10,4,16,0.00
2013-6-4,60.0,51.5,47.1,41.9,39.2,36.4,80,64,44,30.06,29.83,10,5,20,0.00
2013-6-5,66.9,54.4,42.6,41.9,36.7,32.8,82,54,29,30.12,30.00,8,3,12,0.00
2013-6-6,66.8,54.9,48.2,49.8,41.8,33.1,92,63,37,30.15,30.03,7,2,12,0.00
2013-6-7,53.1,50.4,47.8,52.4,49.7,47.4,100,98,91,30.03,29.85,6,2,8,0.74
2013-6-8,61.7,54.8,48.4,57.6,53.7,48.4,100,96,81,29.97,29.71,8,3,16,0.46
2013-6-9,69.6,59.5,54.3,59.4,53.9,48.4,100,84,50,30.15,29.94,8,3,13,0.00
2013-6-10,69.6,59.9,49.5,57.6,51.7,42.8,100,77,40,30.18,29.94,4,-6,8,0.00
2013-6-11,57.6,54.9,52.5,57.6,54.2,51.7,100,98,84,29.94,29.53,7,-171,10,0.91
2013-6-12,59.3,55.0,51.3,54.2,52.2,50.1,100,91,75,29.80,29.53,12,-254,17,0.00
2013-6-13,66.6,57.9,47.1,56.6,50.9,46.9,100,79,49,29.83,29.65,6,-367,8,0.00
2013-6-14,73.1,61.7,51.1,57.6,48.5,39.6,100,67,32,29.77,29.65,11,-356,18,0.00
2013-6-15,70.2,60.1,50.7,41.7,38.0,34.9,63,45,32,29.88,29.77,11,4,20,0.00
2013-6-16,68.5,58.2,50.6,58.1,49.8,41.1,100,76,46,29.88,29.65,8,2,13,0.54
2013-6-17,71.6,60.0,53.0,62.3,56.3,50.6,100,89,47,29.85,29.71,10,-182,14,0.21
2013-6-18,65.8,56.7,49.3,53.3,46.9,39.3,100,72,43,29.94,29.83,6,-181,9,0.00
2013-6-19,68.2,56.5,45.9,49.6,41.2,37.0,96,60,34,30.12,29.88,7,-168,11,0.00
2013-6-20,72.3,58.7,45.2,48.4,41.8,37.3,88,57,32,30.24,30.12,8,-216,11,0.00
2013-6-21,77.4,63.7,51.6,52.0,46.2,40.9,82,55,33,30.21,30.12,9,-13,12,0.00
2013-6-22,72.8,64.3,58.5,65.4,57.0,47.1,100,78,57,30.15,30.06,4,-63,6,0.00
2013-6-23,76.5,66.7,60.0,70.6,65.7,58.0,100,97,79,30.12,29.91,10,1,18,5.52
2013-6-24,83.2,71.0,64.6,69.2,65.8,62.3,100,85,51,29.94,29.80,10,3,15,0.00
2013-6-25,81.4,67.9,61.2,70.9,65.0,57.6,100,92,53,29.85,29.71,16,-5,22,1.07
2013-6-26,72.0,65.6,61.5,71.6,65.4,61.5,100,99,93,29.80,29.71,4,-337,7,0.09
2013-6-27,78.2,69.4,62.7,68.3,65.2,61.7,100,88,59,29.80,29.68,6,2,10,0.00
2013-6-28,70.9,62.3,58.5,67.1,61.7,58.0,100,98,86,29.92,29.44,10,-73,18,0.75
2013-6-29,76.4,68.4,60.0,69.0,64.3,58.0,100,88,58,29.92,29.47,10,-12,18,0.57
2013-6-30,77.6,68.8,62.6,67.7,64.0,58.9,100,86,58,29.88,29.65,7,-277,12,0.21
2013-7-1,72.1,67.2,63.3,68.9,65.9,62.5,100,96,81,30.03,29.85,5,-277,10,0.29
2013-7-2,64.8,62.2,60.1,64.8,62.2,60.1,100,100,100,30.12,30.00,4,2,8,0.58
2013-7-3,77.0,67.9,61.2,73.6,67.5,61.2,100,99,83,30.15,30.03,6,1,9,0.34
2013-7-4,81.4,71.2,66.2,74.3,70.1,66.2,100,97,69,30.15,29.97,6,2,11,0.33
2013-7-5,83.8,72.7,64.9,72.9,69.0,64.9,100,89,54,30.09,29.94,7,2,12,0.04
2013-7-6,79.3,71.6,65.1,72.5,65.8,57.9,100,84,50,30.03,29.91,10,2,13,0.00
2013-7-7,77.9,69.8,62.4,65.9,63.4,60.7,99,81,62,29.97,29.88,6,2,10,0.00
2013-7-8,72.5,67.9,65.7,71.0,67.7,65.7,100,99,92,30.00,29.88,5,1,8,0.99
2013-7-9,78.8,70.2,66.2,70.5,67.0,64.8,100,90,65,30.06,29.91,6,1,9,0.05
2013-7-10,72.5,68.5,65.5,69.6,67.8,65.5,100,98,86,29.97,29.71,5,1,9,0.33
2013-7-11,75.5,67.8,61.3,69.6,62.5,54.1,100,85,56,29.97,29.71,10,3,15,0.29
2013-7-12,77.8,66.7,56.7,60.2,54.8,51.4,97,67,41,30.15,29.97,6,2,8,0.00
2013-7-13,76.9,68.6,58.8,65.2,59.6,52.8,98,75,51,30.27,30.12,4,-20,9,0.00
2013-7-14,83.4,72.0,64.4,69.9,66.1,62.9,100,83,50,30.27,30.12,5,1,9,0.00
2013-7-15,85.1,74.1,64.9,70.8,63.3,54.4,100,73,43,30.18,30.03,6,-473,11,0.00
2013-7-16,83.2,74.1,66.2,68.7,63.9,61.0,97,72,48,30.15,30.06,9,-415,12,0.00
2013-7-17,87.1,74.1,64.4,69.8,65.7,60.5,100,77,46,30.12,29.91,12,-9,26,0.46
2013-7-18,81.7,73.4,67.3,70.8,68.4,65.8,100,85,61,29.97,29.88,7,2,11,0.04
2013-7-19,86.8,76.1,65.8,73.7,69.0,64.9,100,82,49,29.88,29.59,9,4,17,0.16
2013-7-20,78.4,69.7,62.5,69.9,62.3,53.4,100,78,55,29.77,29.59,10,-40,21,0.91
2013-7-21,73.0,63.9,58.0,56.6,53.0,48.7,88,69,44,30.00,29.77,6,-82,10,0.00
2013-7-22,74.8,61.0,53.8,62.9,52.3,46.4,92,73,63,30.00,29.83,7,1,10,0.00
2013-7-23,70.6,65.5,62.6,68.6,65.1,62.4,100,99,92,29.85,29.53,4,-253,6,0.25
2013-7-24,66.4,61.3,52.3,66.4,56.4,45.0,100,85,56,30.00,29.53,9,4,16,0.50
2013-7-25,69.4,58.4,47.5,56.1,48.7,42.4,87,71,48,30.09,29.97,5,-9,8,0.00
2013-7-26,71.0,64.4,58.8,59.0,56.6,53.0,87,76,62,30.03,29.91,6,3,13,0.00
2013-7-27,78.1,66.3,57.2,62.8,56.8,48.0,100,75,34,30.00,29.88,5,1,11,0.00
2013-7-28,77.0,67.9,59.7,63.6,59.1,54.8,98,75,52,30.00,29.88,10,-9,18,3.29
2013-7-29,76.4,67.8,60.6,67.2,60.8,53.6,100,80,49,30.00,29.88,5,-138,14,0.12
2013-7-30,70.6,63.6,57.2,59.0,52.9,47.9,92,70,45,30.06,30.00,7,-40,11,0.00
2013-7-31,75.7,64.9,53.6,60.3,53.8,50.1,100,70,41,30.12,29.94,6,-108,12,0.00
2013-8-1,77.0,65.6,56.8,62.8,56.2,49.4,100,75,38,29.97,29.77,7,2,15,0.17
2013-8-2,73.0,65.1,58.0,65.1,57.6,48.6,100,79,43,29.80,29.71,11,-12,13,0.16
2013-8-3,68.2,61.2,55.4,59.9,55.1,51.3,100,82,57,29.80,29.71,8,3,14,0.09
2013-8-4,66.9,59.0,54.9,60.1,54.4,49.3,100,86,57,29.85,29.74,10,4,20,0.08
2013-8-5,65.6,56.7,50.5,53.1,45.2,35.8,98,69,33,30.00,29.83,8,4,17,0.04
2013-8-6,73.4,59.5,47.5,52.7,47.8,44.5,97,68,40,30.12,30.00,5,-155,8,0.00
2013-8-7,75.3,64.1,54.0,56.5,51.7,49.2,91,66,40,30.12,30.00,7,-244,15,0.00
2013-8-8,74.6,67.4,62.1,70.3,63.1,54.0,100,87,70,30.00,29.88,6,2,12,0.00
2013-8-9,69.3,67.5,65.0,69.3,67.4,65.0,100,100,100,29.91,29.71,5,-259,7,0.67
2013-8-10,68.4,63.0,52.2,66.6,52.0,42.4,100,71,39,30.00,29.71,11,-54,25,0.04
2013-8-11,71.5,59.5,48.7,55.1,49.7,46.0,98,73,40,30.03,29.88,8,-41,10,0.00
2013-8-12,73.0,63.0,53.7,57.5,52.5,45.3,97,71,36,29.97,29.83,8,-78,10,0.00
2013-8-13,66.2,61.4,56.8,65.1,59.5,52.2,100,94,79,29.85,29.65,4,-124,6,0.21
2013-8-14,65.5,59.2,51.6,61.9,53.1,45.5,100,82,53,29.85,29.62,11,-23,19,0.03
2013-8-15,67.6,57.1,49.0,52.2,49.0,45.0,98,77,46,30.03,29.85,8,-36,10,0.00
2013-8-16,71.6,60.6,50.7,55.2,51.5,47.3,100,74,44,30.15,30.00,8,2,13,0.00
2013-8-17,72.4,60.9,52.5,60.6,51.4,45.9,100,75,42,30.24,30.12,8,2,12,0.00
2013-8-18,72.4,61.4,51.8,58.6,52.9,48.3,96,76,43,30.24,30.03,5,-108,8,0.00
2013-8-19,75.9,64.7,54.5,59.5,56.3,53.2,100,77,47,30.03,29.88,10,-156,18,3.29
2013-8-20,78.7,67.5,57.4,63.3,57.5,51.3,99,73,39,30.03,29.94,5,-411,8,0.00
2013-8-21,82.1,68.2,60.4,65.1,60.2,54.5,100,78,39,30.12,29.91,5,-443,6,0.00
2013-8-22,81.8,70.6,63.4,63.8,61.4,57.5,94,75,45,29.97,29.71,6,-54,10,0.00
2013-8-23,69.6,62.7,52.2,63.0,49.7,41.4,98,65,37,30.12,29.77,11,4,18,3.29
2013-8-24,74.5,59.1,46.4,51.5,46.1,42.1,94,65,33,30.27,30.12,5,-83,9,0.00
2013-8-25,73.9,61.5,49.6,54.4,49.1,45.1,93,66,37,30.30,30.06,7,-242,10,0.00
2013-8-26,66.0,62.7,59.2,65.3,61.4,52.4,100,96,68,30.09,29.83,6,-5,11,0.09
2013-8-27,80.6,69.2,60.0,68.6,63.6,58.0,100,85,49,29.92,29.77,10,-157,18,3.29
2013-8-28,82.4,70.7,60.0,68.9,63.7,58.0,100,81,51,29.92,29.77,10,-104,18,0.04
2013-8-29,69.8,63.7,60.0,64.0,62.0,58.0,100,95,75,30.03,29.91,10,-17,18,0.29
2013-8-30,76.6,43.5,60.0,67.5,1.9,-99.9,100,52,61,29.92,29.74,10,-16,18,0.17
2013-8-31,73.8,48.9,64.4,68.5,18.9,-99.9,100,66,71,29.77,29.71,4,-205,8,0.04
2013-9-1,78.2,66.4,64.2,67.8,58.6,-99.9,100,84,57,29.83,29.71,4,1,7,0.00
2013-9-2,72.0,67.6,65.5,69.4,64.9,-99.9,100,94,81,29.80,29.68,5,-87,8,0.29
2013-9-3,68.2,63.4,59.5,65.9,61.3,58.0,100,93,75,29.92,29.65,10,-3,18,0.05
2013-9-4,68.8,61.1,57.0,59.4,55.2,47.1,100,83,48,29.85,29.74,8,-1,13,0.16
2013-9-5,60.0,53.2,43.7,57.0,41.0,31.3,100,67,36,30.12,29.83,10,4,18,0.00
2013-9-6,64.7,50.2,37.8,46.6,37.8,34.5,99,66,36,30.15,30.00,7,-2,12,0.00
2013-9-7,68.1,57.3,47.1,51.1,45.9,40.8,86,67,40,30.00,29.77,7,3,10,0.00
2013-9-8,58.0,51.9,41.8,54.0,43.5,34.4,99,74,49,30.03,29.71,13,4,24,0.17
2013-9-9,64.2,50.1,36.9,45.7,40.3,34.1,97,72,42,30.15,30.00,7,2,10,0.00
2013-9-10,64.4,56.5,49.1,64.4,55.4,45.2,100,96,86,30.06,29.94,4,1,7,0.08
2013-9-11,86.5,71.4,63.8,74.1,68.1,63.8,100,91,49,30.00,29.85,10,3,15,0.83
2013-9-12,75.0,66.6,63.3,72.8,65.9,63.3,100,98,86,29.91,29.59,9,2,15,1.08
2013-9-13,63.3,57.9,52.5,63.3,57.9,52.5,100,100,100,29.77,29.53,11,3,14,0.88
2013-9-14,53.8,50.6,46.0,52.3,49.8,45.8,100,97,89,30.00,29.74,7,3,12,0.74
2013-9-15,63.3,51.7,40.4,51.5,46.3,40.4,100,84,53,30.09,29.94,7,2,12,0.00
2013-9-16,53.4,48.5,37.6,53.1,42.1,28.7,100,80,48,30.21,29.94,11,-3,20,0.08
2013-9-17,62.0,47.1,36.7,40.1,36.3,31.5,86,68,38,30.36,30.21,7,2,10,0.00
2013-9-18,68.1,51.8,39.9,48.1,42.4,37.3,99,74,36,30.27,30.06,7,1,12,0.00
2013-9-19,73.1,57.6,46.8,52.6,46.4,40.9,100,70,32,30.09,29.97,8,1,17,0.00
2013-9-20,76.3,60.8,48.7,52.8,49.5,45.9,96,69,40,30.03,29.88,5,-2,10,0.00
2013-9-21,72.0,61.6,51.8,58.8,51.2,41.8,90,71,34,29.94,29.59,9,-33,17,0.00
2013-9-22,64.2,54.9,44.8,60.7,50.9,40.4,100,87,66,29.80,29.50,12,-38,20,0.67
2013-9-23,45.9,43.3,40.6,42.2,36.6,34.2,90,77,68,29.97,29.80,12,4,17,0.00
2013-9-24,50.2,45.7,41.5,41.7,37.1,34.2,88,72,57,29.94,29.83,10,4,17,0.00
2013-9-25,52.7,47.4,42.4,45.3,42.8,39.4,96,84,73,30.00,29.85,8,2,13,0.00
2013-9-26,59.2,51.3,44.4,46.6,43.8,41.1,93,76,55,30.12,29.94,7,3,13,0.00
2013-9-27,69.2,56.4,49.6,49.2,46.5,40.4,92,72,35,30.21,30.09,7,2,11,0.00
2013-9-28,71.9,56.1,44.6,53.8,47.3,41.5,100,76,35,30.33,30.18,4,1,8,0.00
2013-9-29,72.1,58.0,48.0,53.1,48.1,44.7,100,73,40,30.21,30.00,5,2,9,0.00
2013-9-30,71.5,56.7,46.0,52.1,45.9,42.5,99,71,37,30.06,29.88,5,1,8,0.00
2013-10-1,72.9,57.9,46.0,52.8,48.4,44.5,98,73,42,29.94,29.80,10,2,16,0.00
2013-10-2,71.3,60.5,52.3,56.7,49.7,39.6,100,71,41,29.88,29.77,11,3,17,0.00
2013-10-3,70.6,57.9,48.9,48.3,41.0,38.2,74,55,34,30.06,29.91,8,2,13,0.00
2013-10-4,65.1,55.5,46.1,47.6,42.1,37.2,84,62,42,30.06,29.94,5,1,10,0.00
2013-10-5,62.7,54.4,50.0,46.5,40.5,31.0,76,60,44,30.09,30.00,5,1,7,0.00
2013-10-6,53.8,50.2,48.0,48.6,36.9,30.3,97,62,48,30.12,30.00,5,1,9,0.08
2013-10-7,69.1,58.0,48.6,61.8,55.0,46.7,100,91,67,30.03,29.59,13,3,27,0.50
2013-10-8,58.5,47.3,37.8,49.5,35.7,27.0,100,67,35,30.33,29.83,13,4,20,0.00
2013-10-9,66.2,46.4,33.1,43.4,35.4,31.8,100,71,33,30.42,30.27,6,1,12,0.00
2013-10-10,68.2,50.0,37.0,45.7,39.5,34.8,100,70,38,30.27,30.12,4,1,6,0.00
2013-10-11,74.8,53.4,38.2,47.7,38.4,32.4,96,61,27,30.21,30.12,4,1,6,0.00
2013-10-12,74.2,57.2,46.7,50.0,45.9,36.0,93,69,37,30.39,29.92,10,1,18,0.00
2013-10-13,64.6,52.1,41.6,49.3,46.3,41.1,100,82,50,30.42,30.30,4,1,8,0.00
2013-10-14,57.9,50.3,41.6,52.0,48.4,41.6,100,94,67,30.33,30.24,4,1,11,0.08
2013-10-15,68.9,55.3,44.8,57.8,50.0,44.8,100,85,50,30.30,30.12,4,1,10,0.00
2013-10-16,69.7,54.7,46.5,55.0,47.4,39.3,100,80,36,30.15,29.85,5,1,10,0.00
2013-10-17,67.6,54.7,47.2,56.3,46.8,40.1,100,78,38,29.92,29.71,10,2,18,0.04
2013-10-18,63.3,53.8,41.5,52.1,43.9,31.4,100,71,47,29.92,29.68,10,3,18,22.45
2013-10-19,63.5,50.1,37.1,40.2,36.7,31.6,90,62,37,29.91,29.71,8,2,12,0.00
2013-10-20,58.5,47.4,39.2,46.4,33.7,21.5,98,63,34,29.97,29.65,8,3,17,0.12
2013-10-21,61.3,46.1,31.5,38.3,34.2,28.0,99,66,40,30.06,29.85,6,2,11,0.00
2013-10-22,53.2,45.5,32.4,46.5,37.2,27.8,100,74,57,29.85,29.62,6,2,17,0.09
2013-10-23,50.7,37.2,30.6,34.0,29.0,21.9,94,74,41,29.77,29.53,5,2,9,0.00
2013-10-24,43.9,35.8,26.4,30.6,25.5,19.1,86,67,43,29.77,29.59,6,3,14,0.00
2013-10-25,39.2,35.9,33.2,29.7,23.8,19.5,80,62,47,30.03,29.77,6,3,14,0.00
2013-10-26,41.1,35.4,28.6,32.3,25.4,20.0,88,67,46,30.03,29.77,5,2,13,0.00
2013-10-27,44.1,38.5,34.0,33.4,27.3,21.7,82,64,48,29.91,29.71,8,2,12,0.00
2013-10-28,43.8,35.3,27.5,33.8,23.8,15.7,83,62,45,30.30,29.91,8,3,18,0.00
2013-10-29,44.9,30.5,22.6,22.9,16.6,11.1,77,56,38,30.36,30.24,4,2,8,0.00
2013-10-30,38.7,32.1,27.0,27.7,20.1,13.7,80,59,49,30.24,30.06,4,1,9,0.00
2013-10-31,53.1,41.9,32.0,53.1,38.0,26.1,100,86,66,30.15,29.68,4,1,10,0.66
2013-11-1,61.9,56.7,49.4,60.7,50.0,35.6,100,81,42,29.92,29.23,10,4,23,0.74
2013-11-2,51.8,46.0,34.3,42.0,36.8,28.0,84,71,58,29.80,29.56,8,2,13,0.00
2013-11-3,36.9,29.6,24.3,28.2,15.1,9.0,78,52,39,30.36,29.77,6,3,11,0.00
2013-11-4,40.4,27.9,20.3,15.5,11.5,8.2,57,47,35,30.56,30.36,5,2,9,0.00
2013-11-5,46.1,33.2,23.8,24.8,17.3,11.3,63,51,38,30.56,30.36,5,2,12,0.00
2013-11-6,54.9,43.8,33.1,39.8,31.4,22.8,77,62,43,30.39,29.91,7,2,13,0.00
2013-11-7,60.0,47.0,32.5,50.4,41.4,19.7,100,82,58,29.92,29.71,10,4,18,0.38
2013-11-8,35.9,31.7,28.0,23.8,20.5,17.7,75,61,51,30.03,29.80,8,4,14,0.00
2013-11-9,35.2,31.6,30.0,24.1,17.5,14.9,76,53,44,30.12,29.97,7,3,15,0.00
2013-11-10,38.5,34.4,30.0,38.1,32.7,24.3,100,93,77,29.97,29.68,4,2,12,0.12
2013-11-11,37.4,33.5,30.2,30.5,25.1,20.7,88,71,53,30.06,29.77,7,3,17,0.00
2013-11-12,37.0,23.9,20.7,28.0,14.4,10.8,80,63,53,30.09,29.80,8,4,13,0.00
2013-11-13,27.7,21.7,14.9,11.9,8.9,5.9,68,54,42,30.15,29.97,6,3,13,0.00
2013-11-14,40.6,30.5,21.0,23.7,18.7,9.7,73,59,49,30.00,29.91,4,2,8,0.00
2013-11-15,48.1,37.5,29.3,23.8,17.7,14.6,73,45,31,30.12,30.00,5,2,9,0.04
2013-11-16,56.2,41.7,34.5,25.6,19.4,15.7,52,41,28,30.24,30.12,4,2,8,0.00
2013-11-17,47.5,42.3,35.2,47.5,31.8,19.5,100,68,49,30.24,29.80,3,1,6,0.17
2013-11-18,54.8,48.1,37.8,54.8,36.7,24.7,100,67,41,29.77,29.41,7,3,17,0.46
2013-11-19,36.4,27.8,23.5,29.5,15.5,9.7,79,56,46,30.21,29.59,12,6,21,0.00
2013-11-20,36.5,25.8,20.8,13.3,9.5,6.3,55,46,36,30.53,30.21,8,3,16,0.00
2013-11-21,40.0,28.7,18.5,17.5,10.4,6.3,59,45,31,30.56,30.27,5,1,10,0.00
2013-11-22,36.6,32.2,28.7,34.9,24.9,11.9,100,75,42,30.27,29.71,3,0,6,0.08
2013-11-23,36.9,27.1,15.9,36.8,18.9,6.0,100,69,50,29.85,29.62,9,5,17,0.04
2013-11-24,15.7,12.7,7.5,7.4,2.5,-4.3,72,60,49,30.03,29.68,12,7,27,0.00
2013-11-25,26.1,14.0,4.1,8.7,-1.4,-11.8,55,46,34,30.21,30.03,8,2,13,0.00
2013-11-26,32.6,27.3,21.2,26.3,18.9,8.7,90,68,47,30.15,29.97,5,1,10,0.00
2013-11-27,45.3,35.9,28.8,45.3,35.4,26.2,100,98,87,29.97,29.26,7,2,13,1.25
2013-11-28,28.9,17.3,6.8,26.2,7.0,-4.0,88,61,46,30.27,29.38,9,3,17,0.00
2013-11-29,24.4,10.9,4.3,7.5,-1.6,-7.4,62,53,43,30.62,30.27,4,2,8,0.00
2013-11-30,25.0,13.8,1.2,13.9,1.2,-11.0,73,53,43,30.62,30.24,4,1,7,0.00
2013-12-1,37.1,28.9,19.9,28.0,22.1,11.9,93,74,58,30.24,29.97,3,1,7,0.00
2013-12-2,38.5,31.9,25.2,32.7,30.0,24.0,100,93,76,29.97,29.83,3,0,4,0.04
2013-12-3,37.3,32.0,27.1,34.9,30.2,23.7,100,93,70,29.91,29.83,6,1,9,0.04
2013-12-4,38.1,28.7,22.7,24.1,21.0,18.2,92,72,51,30.12,29.88,6,1,10,0.00
2013-12-5,44.6,36.1,23.3,44.6,33.9,21.1,100,92,81,30.09,29.80,3,1,8,0.04
2013-12-6,45.1,35.4,29.7,45.1,29.2,16.3,100,78,51,30.03,29.80,6,2,13,0.33
2013-12-7,29.5,23.4,13.9,19.9,9.0,3.0,64,50,42,30.33,30.00,9,4,19,0.00
2013-12-8,23.7,17.2,10.9,6.6,3.7,-1.1,58,51,42,30.45,30.30,4,2,10,0.00
2013-12-9,60.0,27.3,18.3,29.6,21.4,5.6,96,77,53,30.39,29.77,10,2,18,3.29
2013-12-10,29.8,24.2,12.2,28.1,14.9,3.6,98,66,45,29.83,29.65,5,3,11,0.00
2013-12-11,60.0,15.3,7.8,12.6,6.1,-0.6,76,64,47,30.00,29.80,10,3,20,0.00
2013-12-12,10.0,6.6,0.2,0.7,-4.3,-15.2,66,59,41,30.15,29.80,7,2,12,0.00
2013-12-13,15.8,6.8,-8.7,1.2,-8.9,-21.2,56,47,41,30.27,29.74,11,4,18,0.00
2013-12-14,10.2,-0.6,-12.6,-3.5,-13.6,-25.0,53,53,53,30.48,30.12,4,1,5,0.00
2013-12-15,21.7,16.0,6.6,13.6,7.2,-6.9,89,68,53,30.12,29.41,13,2,17,0.00
2013-12-16,16.0,4.9,-11.6,7.2,-7.2,-27.4,75,58,43,30.42,29.62,11,3,15,0.00
2013-12-17,11.1,-0.0,-14.3,-6.6,-16.9,-29.9,44,44,44,30.15,29.94,4,1,6,0.00
2013-12-18,30.2,16.1,5.0,32.0,4.7,-12.2,87,59,44,29.97,29.83,6,1,8,0.00
2013-12-19,29.1,24.9,17.1,23.0,18.0,12.2,94,79,64,30.06,29.85,9,2,11,0.00
2013-12-20,35.1,31.4,28.0,33.8,28.6,23.0,98,90,79,30.06,29.85,4,0,7,0.08
2013-12-21,47.5,40.7,34.0,48.2,40.6,33.8,98,97,90,29.88,29.80,8,2,12,0.46
2013-12-22,36.7,34.7,32.2,37.4,34.9,32.0,98,98,98,29.97,29.74,6,1,6,0.95
2013-12-23,35.1,32.5,27.3,35.6,31.0,14.0,98,93,58,30.09,29.94,11,2,14,0.26
2013-12-24,27.3,12.3,3.2,14.0,0.0,-8.3,76,58,46,30.18,29.83,8,3,14,0.00
2013-12-25,15.6,4.4,-5.1,0.8,-9.7,-16.2,58,52,44,30.42,30.15,6,2,9,0.00
2013-12-26,26.4,16.7,7.1,20.1,7.6,-10.0,91,69,45,30.36,30.03,5,1,8,0.00
2013-12-27,29.6,21.5,16.8,19.5,16.2,10.3,91,81,49,30.15,30.06,6,2,11,0.00
2013-12-28,31.8,27.9,13.8,28.9,22.2,9.8,91,79,71,30.09,29.91,7,2,10,0.00
2013-12-29,40.4,32.6,26.0,32.8,29.3,24.8,98,88,66,29.97,29.59,5,0,6,0.03
2013-12-30,32.7,15.6,-6.6,32.2,6.3,-20.8,98,68,48,30.12,29.56,12,2,13,0.00
2013-12-31,11.6,2.8,-5.1,-3.9,-12.1,-19.4,49,49,49,30.15,29.91,4,1,6,0.00
2014-1-1,15.6,4.4,-5.1,0.6,-11.3,-20.7,55,47,45,30.33,30.00,9,2,10,0.00
2014-1-2,6.6,-0.6,-5.7,-9.9,-16.5,-21.2,46,46,46,30.30,29.88,9,2,12,0.00